Time;durP1;ratioP1;P1;durP2;ratioP2;P2;SDS_P1;SDS_P2;PMS_P1;PMS_P2;Temp;Humidity;BMP_temperature;BMP_pressure;BME280_temperature;BME280_humidity;BME280_pressure;Samples;Min_cycle;Max_cycle;Signal;HPM_P1;HPM_P2
2021/04/30 00:01:03;;;;;;;20.65;14.25;;;;;;;13.55;47.63;100541.98;1770407;80;21607;-53
2021/04/30 00:03:30;;;;;;;18.82;13.70;;;;;;;13.57;47.55;100539.72;1775489;80;21553;-65
2021/04/30 00:05:58;;;;;;;18.25;13.93;;;;;;;13.57;47.69;100538.86;1753601;82;21142;-65
2021/04/30 00:08:26;;;;;;;18.52;13.45;;;;;;;13.57;47.74;100536.22;1765086;80;21585;-65
2021/04/30 00:10:53;;;;;;;16.40;12.30;;;;;;;13.58;47.83;100527.38;1752248;80;21558;-51
2021/04/30 00:13:21;;;;;;;18.30;12.30;;;;;;;13.59;48.06;100531.30;1795923;79;21180;-65
2021/04/30 00:15:49;;;;;;;19.17;12.43;;;;;;;13.57;48.21;100524.31;1750436;82;21689;-52
2021/04/30 00:18:16;;;;;;;15.32;11.18;;;;;;;13.62;48.38;100522.44;1700435;82;21165;-65
2021/04/30 00:20:53;;;;;;;17.67;11.53;;;;;;;13.61;48.67;100515.41;1691022;83;21312;-65
2021/04/30 00:23:25;;;;;;;14.33;11.03;;;;;;;13.60;48.99;100522.92;1742614;82;21183;-50
2021/04/30 00:25:50;;;;;;;14.68;11.22;;;;;;;13.55;49.33;100518.19;1718028;82;21183;-51
2021/04/30 00:28:17;;;;;;;11.65;9.93;;;;;;;13.50;49.54;100519.16;1721756;82;21155;-50
2021/04/30 00:30:45;;;;;;;13.83;11.05;;;;;;;13.42;49.72;100522.88;1728118;81;21570;-64
2021/04/30 00:33:12;;;;;;;14.65;10.82;;;;;;;13.41;49.93;100522.43;1733512;82;21602;-66
2021/04/30 00:35:42;;;;;;;13.03;10.50;;;;;;;13.44;49.80;100517.97;1734791;82;21304;-51
2021/04/30 00:38:09;;;;;;;14.18;11.03;;;;;;;13.37;50.02;100525.14;1714969;82;21196;-64
2021/04/30 00:40:38;;;;;;;14.53;10.88;;;;;;;13.42;50.04;100518.92;1719833;81;21171;-64
2021/04/30 00:43:06;;;;;;;15.18;10.75;;;;;;;13.41;50.08;100520.67;1717691;83;21683;-51
2021/04/30 00:45:34;;;;;;;14.18;11.35;;;;;;;13.40;50.16;100517.58;1732121;83;21119;-64
2021/04/30 00:48:01;;;;;;;13.48;10.40;;;;;;;13.45;50.19;100506.48;1708502;81;21608;-51
2021/04/30 00:50:32;;;;;;;13.28;10.43;;;;;;;13.41;50.46;100519.36;1728492;83;21139;-64
2021/04/30 00:53:00;;;;;;;15.43;11.70;;;;;;;13.41;50.50;100521.11;1715798;83;21247;-52
2021/04/30 00:55:27;;;;;;;12.75;11.28;;;;;;;13.35;50.73;100520.77;1718509;83;21297;-50
2021/04/30 00:58:01;;;;;;;16.02;12.30;;;;;;;13.37;50.85;100522.50;1720006;81;21583;-64
2021/04/30 01:00:31;;;;;;;18.73;12.88;;;;;;;13.36;50.92;100510.61;1712854;83;21623;-64
2021/04/30 01:02:59;;;;;;;;;;;;;;;13.38;51.15;100515.42;1740510;82;21146;-65
2021/04/30 01:05:26;;;;;;;19.75;13.38;;;;;;;13.43;51.21;100512.73;1746287;82;20162;-64
2021/04/30 01:07:54;;;;;;;17.00;12.90;;;;;;;13.44;51.33;100514.00;1784690;79;21150;-52
2021/04/30 01:10:23;;;;;;;18.62;14.18;;;;;;;13.46;51.57;100513.98;1783706;80;21653;-50
2021/04/30 01:12:51;;;;;;;18.23;15.18;;;;;;;13.43;51.81;100514.91;1784084;80;21167;-64
2021/04/30 01:15:19;;;;;;;17.82;14.85;;;;;;;13.44;51.79;100507.86;1784522;80;21857;-64
2021/04/30 01:17:47;;;;;;;19.75;15.68;;;;;;;13.46;51.82;100509.55;1778840;80;21635;-52
2021/04/30 01:20:18;;;;;;;19.90;15.75;;;;;;;13.50;51.82;100509.02;1784698;80;21178;-51
2021/04/30 01:22:51;;;;;;;;;;;;;;;13.46;51.83;100506.91;1773908;80;21647;-51
2021/04/30 01:25:23;;;;;;;19.20;15.20;;;;;;;13.43;52.00;100501.69;1761569;79;20147;-50
2021/04/30 01:27:51;;;;;;;21.30;16.27;;;;;;;13.41;52.04;100498.64;1769602;80;21109;-64
2021/04/30 01:30:28;;;;;;;19.48;16.82;;;;;;;13.42;52.14;100501.73;1784344;80;21289;-64
2021/04/30 01:32:55;;;;;;;19.70;16.55;;;;;;;13.42;52.14;100494.66;1775549;81;21189;-51
2021/04/30 01:35:33;;;;;;;19.48;16.65;;;;;;;13.42;52.34;100501.27;1778997;79;21118;-51
2021/04/30 01:38:03;;;;;;;21.68;17.77;;;;;;;13.39;52.43;100499.54;1775268;80;21142;-50
2021/04/30 01:40:34;;;;;;;21.95;17.60;;;;;;;13.35;52.55;100497.87;1760473;80;21143;-64
2021/04/30 01:43:10;;;;;;;22.93;18.10;;;;;;;13.33;52.61;100497.47;1779544;78;21961;-64
2021/04/30 01:48:31;;;;;;;21.73;17.42;;;;;;;13.35;52.69;100493.90;1800748;77;22183;-64
2021/04/30 01:51:00;;;;;;;23.50;19.30;;;;;;;12.32;54.95;100493.73;1761187;81;21160;-49
2021/04/30 01:53:32;;;;;;;21.97;18.55;;;;;;;12.24;55.33;100494.30;1773648;80;21277;-64
2021/04/30 01:56:06;;;;;;;21.40;18.42;;;;;;;12.19;55.55;100493.05;1761881;81;21139;-65
2021/04/30 01:58:34;;;;;;;23.02;18.73;;;;;;;12.12;55.87;100495.39;1765774;80;21157;-52
2021/04/30 02:01:02;;;;;;;23.75;19.17;;;;;;;12.08;56.09;100495.02;1766006;80;21578;-52
2021/04/30 02:03:30;;;;;;;25.97;19.73;;;;;;;12.05;56.11;100487.16;1768009;80;21277;-66
2021/04/30 02:05:59;;;;;;;22.45;18.65;;;;;;;11.90;56.54;100479.02;1762031;81;21139;-65
2021/04/30 02:08:27;;;;;;;21.97;19.27;;;;;;;12.78;54.53;100473.96;1762474;80;21137;-65
2021/04/30 02:10:55;;;;;;;24.23;20.85;;;;;;;12.82;54.20;100470.33;1766067;80;21126;-52
2021/04/30 02:13:23;;;;;;;23.32;20.12;;;;;;;12.81;54.15;100468.59;1762365;80;21292;-52
2021/04/30 02:15:54;;;;;;;25.60;20.97;;;;;;;12.80;54.08;100468.20;1762837;80;21139;-65
2021/04/30 02:18:23;;;;;;;26.02;21.75;;;;;;;12.77;54.05;100469.58;1789831;80;21530;-52
2021/04/30 02:20:51;;;;;;;27.37;20.97;;;;;;;12.75;54.09;100468.73;1777817;80;21617;-52
2021/04/30 02:23:19;;;;;;;25.35;19.75;;;;;;;12.73;54.08;100470.53;1784426;80;21163;-65
2021/04/30 02:25:47;;;;;;;26.65;20.97;;;;;;;12.68;54.08;100466.64;1792161;80;21115;-53
2021/04/30 02:28:15;;;;;;;24.07;19.98;;;;;;;12.61;54.16;100471.63;1770673;80;21546;-53
2021/04/30 02:30:43;;;;;;;31.73;19.77;;;;;;;12.54;54.31;100470.02;1767311;80;21135;-53
2021/04/30 02:33:11;;;;;;;28.62;21.42;;;;;;;12.45;54.50;100474.58;1786360;80;21180;-53
2021/04/30 02:35:45;;;;;;;25.20;20.08;;;;;;;12.33;54.68;100473.03;1777582;80;21121;-66
2021/04/30 02:38:14;;;;;;;29.95;21.00;;;;;;;12.26;55.00;100472.72;1761839;80;21130;-66
2021/04/30 02:40:43;;;;;;;26.12;21.48;;;;;;;12.21;55.22;100473.24;1762126;81;21166;-66
2021/04/30 02:43:14;;;;;;;27.05;21.70;;;;;;;12.13;55.44;100472.07;1773233;80;21554;-53
2021/04/30 02:45:43;;;;;;;31.73;22.65;;;;;;;12.08;55.69;100476.98;1792551;79;21167;-66
2021/04/30 02:48:13;;;;;;;33.45;23.55;;;;;;;12.00;55.89;100476.66;1785309;79;21127;-66
2021/04/30 02:50:42;;;;;;;30.02;22.60;;;;;;;11.98;56.01;100485.02;1793379;80;21594;-54
2021/04/30 02:53:10;;;;;;;35.65;23.60;;;;;;;11.97;56.33;100478.45;1792117;80;21187;-54
2021/04/30 02:55:38;;;;;;;29.35;23.40;;;;;;;11.97;56.48;100479.77;1793175;80;21123;-54
2021/04/30 02:58:06;;;;;;;30.00;23.42;;;;;;;11.99;56.58;100477.98;1770320;80;21143;-66
2021/04/30 03:00:34;;;;;;;32.88;24.30;;;;;;;11.98;56.71;100484.16;1761692;81;21162;-54
2021/04/30 03:03:02;;;;;;;30.52;25.08;;;;;;;11.96;56.78;100482.84;1759014;81;21558;-65
2021/04/30 03:05:30;;;;;;;32.15;24.07;;;;;;;11.92;56.93;100479.86;1763913;80;21134;-66
2021/04/30 03:07:58;;;;;;;31.73;24.45;;;;;;;11.89;57.16;100484.72;1786522;80;21281;-54
2021/04/30 03:10:26;;;;;;;31.60;24.35;;;;;;;11.87;57.21;100478.60;1793030;80;21174;-66
2021/04/30 03:12:55;;;;;;;32.25;25.85;;;;;;;11.86;57.29;100478.17;1791809;80;21163;-53
2021/04/30 03:15:23;;;;;;;36.68;24.98;;;;;;;11.84;57.47;100479.96;1779753;79;21107;-66
2021/04/30 03:17:51;;;;;;;30.23;25.00;;;;;;;11.83;57.68;100477.37;1779509;80;21147;-66
2021/04/30 03:20:19;;;;;;;29.85;23.52;;;;;;;11.80;57.82;100467.72;1789878;80;21099;-66
2021/04/30 03:22:47;;;;;;;28.77;21.77;;;;;;;11.80;57.85;100464.23;1755281;82;21150;-66
2021/04/30 03:25:15;;;;;;;25.75;21.40;;;;;;;11.82;58.10;100464.61;1728079;83;21163;-66
2021/04/30 03:27:43;;;;;;;31.20;21.68;;;;;;;11.81;58.15;100472.09;1707341;84;21617;-66
2021/04/30 03:30:14;;;;;;;24.92;21.48;;;;;;;11.84;58.31;100468.09;1706695;84;21108;-66
2021/04/30 03:32:42;;;;;;;23.62;19.42;;;;;;;11.91;58.30;100468.89;1702358;82;21257;-54
2021/04/30 03:35:16;;;;;;;24.77;19.05;;;;;;;11.92;58.52;100469.31;1724243;83;21660;-54
2021/04/30 03:37:42;;;;;;;28.10;19.65;;;;;;;11.96;58.58;100472.76;1708983;83;21583;-65
2021/04/30 03:40:12;;;;;;;31.77;21.93;;;;;;;12.01;58.68;100472.27;1728125;83;21297;-66
2021/04/30 03:42:39;;;;;;;23.80;18.80;;;;;;;12.07;58.72;100476.56;1725131;83;21563;-66
2021/04/30 03:45:08;;;;;;;23.90;18.40;;;;;;;12.14;58.54;100476.42;1711038;83;21559;-53
2021/04/30 03:47:36;;;;;;;28.35;18.17;;;;;;;12.26;58.49;100478.00;1711722;83;21201;-66
2021/04/30 03:50:05;;;;;;;25.55;17.57;;;;;;;12.42;58.43;100481.66;1770197;80;21273;-53
2021/04/30 03:52:33;;;;;;;27.20;17.67;;;;;;;13.58;55.89;100489.03;1765603;80;21530;-52
2021/04/30 03:55:01;;;;;;;25.23;19.10;;;;;;;13.78;55.36;100484.13;1768836;80;21285;-52
2021/04/30 03:57:28;;;;;;;25.88;17.90;;;;;;;13.89;55.18;100491.83;1771803;80;21528;-52
2021/04/30 03:59:56;;;;;;;29.92;20.05;;;;;;;13.93;55.14;100488.17;1769288;80;21245;-53
2021/04/30 04:02:24;;;;;;;33.73;18.60;;;;;;;14.05;55.06;100486.14;1770508;80;21593;-65
2021/04/30 04:04:52;;;;;;;40.75;19.57;;;;;;;14.16;55.07;100484.09;1768872;80;21131;-54
2021/04/30 04:07:19;;;;;;;32.53;20.52;;;;;;;13.32;57.32;100482.51;1699937;84;21641;-54
2021/04/30 04:09:47;;;;;;;36.70;19.02;;;;;;;13.17;58.38;100483.28;1709932;83;21593;-55
2021/04/30 04:12:15;;;;;;;37.50;19.98;;;;;;;13.23;58.55;100488.88;1770674;80;21760;-53
2021/04/30 04:14:43;;;;;;;27.77;19.73;;;;;;;13.29;58.96;100486.53;1768795;80;21130;-65
2021/04/30 04:17:13;;;;;;;25.27;18.32;;;;;;;13.36;59.03;100488.15;1767623;80;21618;-54
2021/04/30 04:19:48;;;;;;;30.02;18.92;;;;;;;13.44;59.07;100486.23;1696409;84;21135;-54
2021/04/30 04:22:16;;;;;;;36.65;19.57;;;;;;;13.53;59.21;100486.47;1715374;84;21166;-65
2021/04/30 04:24:44;;;;;;;34.75;19.20;;;;;;;13.63;59.13;100480.55;1775238;79;21139;-55
2021/04/30 04:27:12;;;;;;;27.82;18.10;;;;;;;13.73;58.94;100489.13;1756104;80;21273;-66
2021/04/30 04:29:41;;;;;;;29.07;18.02;;;;;;;13.85;58.82;100483.98;1756642;80;21139;-65
2021/04/30 04:32:09;;;;;;;28.05;18.30;;;;;;;13.96;58.78;100481.95;1754919;80;21162;-65
2021/04/30 04:34:37;;;;;;;29.45;19.45;;;;;;;14.01;58.79;100479.18;1764900;80;21103;-65
2021/04/30 04:37:05;;;;;;;25.37;19.07;;;;;;;13.71;59.65;100483.00;1760971;80;21586;-65
2021/04/30 04:39:33;;;;;;;23.02;17.90;;;;;;;13.23;61.52;100481.83;1753684;82;21146;-55
2021/04/30 04:42:03;;;;;;;22.15;18.50;;;;;;;13.32;61.74;100483.39;1769617;80;21104;-54
2021/04/30 04:44:33;;;;;;;24.37;19.02;;;;;;;13.46;61.62;100488.87;1783974;80;21120;-54
2021/04/30 04:47:01;;;;;;;22.67;18.00;;;;;;;13.59;61.57;100491.63;1778128;79;21150;-55
2021/04/30 04:49:30;;;;;;;23.42;19.35;;;;;;;14.55;59.24;100481.77;1769715;81;21123;-55
2021/04/30 04:51:58;;;;;;;22.60;18.48;;;;;;;14.82;58.49;100481.94;1767251;81;21135;-65
2021/04/30 04:54:28;;;;;;;20.88;15.43;;;;;;;14.97;58.04;100480.63;1742747;81;21289;-55
2021/04/30 04:56:57;;;;;;;18.85;16.25;;;;;;;15.03;57.06;100477.80;1754869;81;21131;-65
2021/04/30 04:59:25;;;;;;;19.37;16.60;;;;;;;15.15;57.21;100476.56;1748423;82;21164;-54
2021/04/30 05:01:53;;;;;;;19.67;14.98;;;;;;;15.22;57.64;100464.86;1776075;81;21128;-65
2021/04/30 05:04:25;;;;;;;19.80;16.02;;;;;;;15.36;57.47;100467.56;1772299;81;21155;-55
2021/04/30 05:06:56;;;;;;;23.65;17.80;;;;;;;15.49;57.06;100460.08;1738002;82;21175;-55
2021/04/30 05:09:24;;;;;;;16.10;14.40;;;;;;;15.54;57.22;100462.98;1748515;82;21211;-65
2021/04/30 05:11:52;;;;;;;17.80;13.83;;;;;;;15.69;56.61;100453.66;1753709;81;21586;-55
2021/04/30 05:14:21;;;;;;;19.82;13.68;;;;;;;15.86;56.57;100456.23;1754494;81;21103;-66
2021/04/30 05:16:51;;;;;;;15.60;13.10;;;;;;;15.98;55.99;100458.52;1746574;82;21120;-54
2021/04/30 05:19:19;;;;;;;14.63;11.38;;;;;;;16.12;55.27;100455.39;1748919;81;21083;-65
2021/04/30 05:21:49;;;;;;;21.17;15.45;;;;;;;16.19;54.84;100455.59;1743679;81;21123;-65
2021/04/30 05:24:17;;;;;;;18.52;13.68;;;;;;;16.31;54.93;100450.31;1753132;81;21550;-65
2021/04/30 05:26:45;;;;;;;16.87;12.10;;;;;;;16.40;54.61;100450.91;1748309;81;21140;-64
2021/04/30 05:29:15;;;;;;;14.10;12.00;;;;;;;16.45;54.10;100454.28;1759779;81;21550;-55
2021/04/30 05:31:44;;;;;;;15.30;10.75;;;;;;;16.57;53.87;100452.48;1754281;81;21119;-65
2021/04/30 05:34:12;;;;;;;16.50;12.20;;;;;;;16.73;53.40;100452.83;1748297;81;21163;-65
2021/04/30 05:36:39;;;;;;;14.45;11.28;;;;;;;16.79;53.42;100449.91;1748341;82;21119;-55
2021/04/30 05:39:07;;;;;;;11.80;9.50;;;;;;;16.88;53.35;100458.47;1752927;81;21539;-65
2021/04/30 05:41:35;;;;;;;12.00;9.78;;;;;;;17.08;52.99;100455.98;1718622;82;21142;-65
2021/04/30 05:44:04;;;;;;;14.45;9.48;;;;;;;17.18;51.96;100453.81;1748424;81;21136;-55
2021/04/30 05:46:31;;;;;;;12.15;9.50;;;;;;;17.32;52.27;100458.59;1754027;81;21119;-55
2021/04/30 05:49:01;;;;;;;10.40;8.33;;;;;;;17.49;52.00;100459.73;1772591;80;21596;-56
2021/04/30 05:51:31;;;;;;;12.58;8.98;;;;;;;17.59;51.42;100454.90;1782658;80;21099;-55
2021/04/30 05:53:59;;;;;;;10.23;8.60;;;;;;;17.72;51.44;100456.59;1725559;83;21554;-64
2021/04/30 05:56:29;;;;;;;13.22;8.95;;;;;;;17.83;51.35;100451.70;1707028;83;21170;-55
2021/04/30 05:58:56;;;;;;;13.53;9.10;;;;;;;18.01;50.96;100446.09;1719825;83;21585;-65
2021/04/30 06:01:24;;;;;;;11.22;8.70;;;;;;;18.19;51.38;100453.77;1709092;83;21148;-64
2021/04/30 06:03:52;;;;;;;12.07;8.13;;;;;;;18.31;50.73;100446.19;1713921;83;21578;-55
2021/04/30 06:06:20;;;;;;;10.80;8.63;;;;;;;18.50;50.44;100451.56;1729007;83;21101;-65
2021/04/30 06:08:48;;;;;;;12.00;8.40;;;;;;;18.61;49.96;100446.63;1711438;83;21278;-55
2021/04/30 06:11:16;;;;;;;11.08;8.28;;;;;;;18.70;49.71;100448.89;1712332;83;21585;-66
2021/04/30 06:13:44;;;;;;;10.20;7.45;;;;;;;18.80;49.73;100459.11;1734227;83;21606;-64
2021/04/30 06:16:12;;;;;;;8.80;6.90;;;;;;;18.84;49.77;100461.59;1732355;82;21139;-65
2021/04/30 06:18:40;;;;;;;9.40;6.30;;;;;;;18.98;49.51;100456.98;1695667;84;21159;-65
2021/04/30 06:21:08;;;;;;;10.75;6.40;;;;;;;19.10;49.07;100459.53;1725262;83;21200;-65
2021/04/30 06:23:36;;;;;;;8.48;6.00;;;;;;;19.20;48.43;100460.45;1707621;83;21555;-55
2021/04/30 06:26:04;;;;;;;9.53;6.33;;;;;;;19.24;47.82;100466.88;1724465;83;21189;-65
2021/04/30 06:28:32;;;;;;;8.33;6.00;;;;;;;19.31;47.89;100471.00;1707558;83;21157;-65
2021/04/30 06:30:59;;;;;;;12.00;6.67;;;;;;;19.37;48.05;100467.20;1707671;83;21591;-55
2021/04/30 06:33:27;;;;;;;7.80;6.35;;;;;;;19.47;47.98;100464.94;1718469;83;21170;-65
2021/04/30 06:35:55;;;;;;;9.25;7.03;;;;;;;19.58;48.09;100468.41;1706688;84;21579;-55
2021/04/30 06:38:23;;;;;;;7.97;5.42;;;;;;;19.89;47.36;100468.26;1695164;84;21586;-55
2021/04/30 06:40:51;;;;;;;7.20;5.25;;;;;;;19.64;46.15;100474.80;1706247;83;21144;-55
2021/04/30 06:43:19;;;;;;;9.88;5.83;;;;;;;19.68;45.67;100481.72;1724578;83;21587;-55
2021/04/30 06:45:47;;;;;;;6.92;5.60;;;;;;;19.66;45.58;100469.36;1719576;83;21298;-65
2021/04/30 06:48:15;;;;;;;7.03;5.33;;;;;;;19.71;46.26;100469.55;1692907;84;21251;-65
2021/04/30 06:50:43;;;;;;;8.35;5.25;;;;;;;19.75;45.27;100469.80;1778368;81;21077;-53
2021/04/30 06:53:10;;;;;;;6.35;5.08;;;;;;;19.89;45.83;100473.60;1779119;81;21609;-63
2021/04/30 06:55:39;;;;;;;7.60;5.20;;;;;;;20.63;45.68;100473.84;1766170;81;21594;-53
2021/04/30 06:58:06;;;;;;;8.95;4.53;;;;;;;20.54;45.05;100465.42;1778967;81;21568;-50
2021/04/30 07:00:35;;;;;;;7.62;4.75;;;;;;;20.56;44.85;100469.77;1774068;81;21535;-62
2021/04/30 07:03:05;;;;;;;7.30;4.53;;;;;;;20.69;43.77;100473.13;1748122;82;21139;-63
2021/04/30 07:05:35;;;;;;;7.17;3.70;;;;;;;20.80;43.92;100475.65;1762321;81;21131;-53
2021/04/30 07:08:04;;;;;;;5.97;3.70;;;;;;;20.90;42.74;100479.17;1775713;81;21186;-53
2021/04/30 07:10:32;;;;;;;7.70;4.20;;;;;;;21.02;43.24;100475.80;1750181;81;21178;-54
2021/04/30 07:13:00;;;;;;;7.72;3.80;;;;;;;21.12;42.74;100464.60;1711787;84;21620;-53
2021/04/30 07:15:28;;;;;;;10.38;4.10;;;;;;;21.27;42.12;100457.07;1752755;81;21274;-62
2021/04/30 07:17:56;;;;;;;7.12;3.75;;;;;;;21.65;41.20;100470.13;1704667;84;21618;-63
2021/04/30 07:20:24;;;;;;;6.90;3.58;;;;;;;21.58;40.57;100475.90;1748342;82;21175;-53
2021/04/30 07:22:53;;;;;;;4.85;3.30;;;;;;;21.54;40.88;100475.19;1748109;81;21170;-64
2021/04/30 07:25:21;;;;;;;7.72;3.62;;;;;;;21.61;40.27;100479.25;1710446;84;21114;-64
2021/04/30 07:27:49;;;;;;;6.70;4.10;;;;;;;21.71;40.53;100480.10;1764592;81;21535;-55
2021/04/30 07:30:18;;;;;;;5.90;4.12;;;;;;;21.71;39.32;100476.09;1763091;80;21108;-64
2021/04/30 07:32:47;;;;;;;5.50;3.83;;;;;;;21.69;40.18;100485.53;1703524;84;21174;-54
2021/04/30 07:35:16;;;;;;;8.78;3.52;;;;;;;21.61;39.32;100477.06;1753551;81;21120;-54
2021/04/30 07:37:44;;;;;;;5.47;4.05;;;;;;;21.70;39.85;100467.17;1774550;81;21582;-54
2021/04/30 07:40:13;;;;;;;5.12;3.65;;;;;;;21.84;40.04;100454.34;1773232;81;21546;-64
2021/04/30 07:42:43;;;;;;;7.45;4.17;;;;;;;21.98;39.06;100455.70;1766040;81;21160;-63
2021/04/30 07:45:13;;;;;;;6.75;3.90;;;;;;;22.13;38.41;100454.42;1748240;82;21641;-54
2021/04/30 07:47:41;;;;;;;5.67;3.83;;;;;;;22.20;38.60;100456.25;1751402;81;21175;-63
2021/04/30 07:50:10;;;;;;;5.10;3.58;;;;;;;22.43;38.78;100453.52;1748146;82;21223;-55
2021/04/30 07:52:39;;;;;;;6.60;3.42;;;;;;;22.52;36.46;100450.80;1773923;81;21738;-54
2021/04/30 07:55:09;;;;;;;6.20;3.30;;;;;;;22.42;37.21;100446.42;1779027;81;21163;-64
2021/04/30 07:57:38;;;;;;;6.37;3.62;;;;;;;22.48;37.18;100450.11;1778883;81;21183;-64
2021/04/30 08:00:08;;;;;;;4.80;3.40;;;;;;;22.50;37.81;100439.30;1759071;81;21301;-64
2021/04/30 08:02:42;;;;;;;5.05;3.72;;;;;;;22.47;37.19;100432.30;1748964;81;21626;-64
2021/04/30 08:05:11;;;;;;;4.70;3.60;;;;;;;22.64;37.84;100420.52;1712447;84;21186;-64
2021/04/30 08:07:40;;;;;;;7.60;3.45;;;;;;;21.95;40.05;100425.56;1748020;81;21167;-55
2021/04/30 08:10:10;;;;;;;6.40;3.67;;;;;;;22.97;38.59;100417.98;1774363;81;21091;-64
2021/04/30 08:12:39;;;;;;;5.03;3.60;;;;;;;23.06;38.44;100415.22;1770422;81;21143;-64
2021/04/30 08:15:08;;;;;;;5.40;3.92;;;;;;;23.41;37.94;100416.58;1774596;81;21772;-54
2021/04/30 08:17:35;;;;;;;7.30;4.12;;;;;;;23.55;37.82;100408.48;1778749;81;21204;-54
2021/04/30 08:20:05;;;;;;;5.05;3.55;;;;;;;23.63;38.07;100407.11;1774065;81;21152;-64
2021/04/30 08:22:33;;;;;;;5.17;3.58;;;;;;;23.68;37.02;100416.58;1759298;80;21682;-54
2021/04/30 08:25:01;;;;;;;5.75;3.40;;;;;;;23.71;36.97;100411.00;1712475;84;21339;-55
2021/04/30 08:27:28;;;;;;;4.47;2.98;;;;;;;23.72;36.49;100402.47;1748269;82;21571;-64
2021/04/30 08:29:56;;;;;;;3.80;2.83;;;;;;;23.73;36.38;100399.66;1711538;84;21170;-64
2021/04/30 08:32:24;;;;;;;5.10;2.40;;;;;;;23.69;36.07;100393.27;1748214;82;21604;-64
2021/04/30 08:34:53;;;;;;;4.70;2.50;;;;;;;23.63;36.09;100388.30;1702875;84;21123;-63
2021/04/30 08:37:21;;;;;;;4.30;2.57;;;;;;;23.68;35.59;100395.08;1765783;81;21159;-64
2021/04/30 08:39:49;;;;;;;4.95;2.85;;;;;;;23.69;35.91;100390.58;1768238;80;22313;-55
2021/04/30 08:42:17;;;;;;;4.05;2.80;;;;;;;23.77;36.24;100390.94;1712493;84;21368;-54
2021/04/30 08:44:46;;;;;;;5.50;3.17;;;;;;;23.07;36.79;100397.28;1758345;81;21143;-55
2021/04/30 08:47:18;;;;;;;6.17;2.80;;;;;;;24.07;35.73;100393.85;1779124;81;21136;-64
2021/04/30 08:49:47;;;;;;;4.80;1.90;;;;;;;24.25;34.64;100387.67;1783912;80;21114;-54
2021/04/30 08:52:19;;;;;;;4.70;2.67;;;;;;;24.41;34.86;100389.30;1729708;82;21139;-64
2021/04/30 08:54:51;;;;;;;6.17;3.20;;;;;;;24.67;34.11;100386.57;1719837;83;21666;-64
2021/04/30 08:57:23;;;;;;;5.17;3.08;;;;;;;24.71;33.79;100386.73;1696404;84;21665;-56
2021/04/30 08:59:47;;;;;;;6.00;3.20;;;;;;;24.67;33.86;100387.92;1724510;83;21166;-54
2021/04/30 09:02:15;;;;;;;7.80;3.30;;;;;;;24.79;34.25;100380.34;1725902;83;21284;-54
2021/04/30 09:04:44;;;;;;;6.95;3.52;;;;;;;24.88;33.76;100374.77;1721505;83;21126;-54
2021/04/30 09:07:14;;;;;;;6.35;3.58;;;;;;;24.92;33.99;100388.39;1716470;83;21132;-54
2021/04/30 09:09:59;;;;;;;5.25;2.75;;;;;;;25.03;33.94;100379.52;1707093;84;21173;-54
2021/04/30 09:12:28;;;;;;;7.47;3.30;;;;;;;25.26;33.57;100386.40;1688720;83;21345;-54
2021/04/30 09:14:57;;;;;;;4.47;2.50;;;;;;;26.38;31.97;100381.55;1707276;84;21223;-64
2021/04/30 09:17:27;;;;;;;6.28;3.12;;;;;;;25.48;33.31;100375.75;1716248;83;21151;-64
2021/04/30 09:20:00;;;;;;;6.53;2.52;;;;;;;25.47;33.32;100383.47;1724219;83;21195;-64
2021/04/30 09:22:34;;;;;;;8.60;3.92;;;;;;;25.51;33.75;100382.26;1724219;83;21205;-55
2021/04/30 09:25:09;;;;;;;8.40;3.55;;;;;;;25.47;33.79;100371.84;1724680;83;21151;-55
2021/04/30 09:27:43;;;;;;;4.20;2.58;;;;;;;25.37;34.11;100380.58;1725199;82;21193;-54
2021/04/30 09:30:25;;;;;;;7.33;3.10;;;;;;;25.36;33.81;100381.55;1709247;83;21591;-54
2021/04/30 09:33:19;;;;;;;3.92;2.55;;;;;;;25.42;34.04;100368.59;1699186;83;21168;-54
2021/04/30 09:35:52;;;;;;;8.50;3.42;;;;;;;25.41;33.44;100369.07;1703187;83;21134;-62
2021/04/30 09:38:33;;;;;;;6.75;3.35;;;;;;;25.95;32.66;100364.15;1736492;83;21164;-55
2021/04/30 09:41:08;;;;;;;6.00;2.80;;;;;;;26.23;32.09;100356.14;1725370;83;21169;-54
2021/04/30 09:43:51;;;;;;;4.75;3.17;;;;;;;24.86;34.56;100359.22;1715722;83;21160;-54
2021/04/30 09:46:35;;;;;;;7.17;2.90;;;;;;;24.74;35.12;100361.83;1711257;83;21280;-55
2021/04/30 09:49:15;;;;;;;5.60;2.85;;;;;;;24.61;35.56;100359.63;1752006;82;21167;-62
2021/04/30 09:51:50;;;;;;;5.75;3.02;;;;;;;24.64;35.71;100363.45;1792669;80;21567;-55
2021/04/30 10:16:57;;;;;;;4.70;3.00;;;;;;;24.56;37.80;100363.14;1797165;79;28549;-62
2021/04/30 10:19:26;;;;;;;7.42;3.30;;;;;;;24.72;37.32;100366.48;1766945;81;21137;-62
2021/04/30 10:21:54;;;;;;;7.45;4.30;;;;;;;24.72;37.08;100365.14;1745540;82;21635;-62
2021/04/30 10:24:22;;;;;;;6.15;3.62;;;;;;;24.85;37.58;100358.84;1721390;82;21118;-53
2021/04/30 10:26:54;;;;;;;4.62;3.40;;;;;;;24.89;37.14;100361.69;1688498;81;21205;-64
2021/04/30 10:29:23;;;;;;;5.57;3.57;;;;;;;24.77;37.29;100361.60;1741530;82;21150;-62
2021/04/30 10:31:52;;;;;;;5.90;3.17;;;;;;;24.54;36.83;100369.95;1734128;81;21178;-54
2021/04/30 10:34:30;;;;;;;4.50;2.98;;;;;;;24.30;37.31;100367.17;1742697;82;21185;-54
2021/04/30 10:37:01;;;;;;;5.00;3.05;;;;;;;24.04;37.72;100370.75;1742151;82;21158;-64
2021/04/30 10:39:32;;;;;;;6.37;3.30;;;;;;;23.87;37.64;100365.13;1742451;82;21190;-54
2021/04/30 10:42:11;;;;;;;;;;;;;;;23.61;38.40;100362.91;1745186;82;21565;-54
2021/04/30 10:44:43;;;;;;;5.40;3.58;;;;;;;23.52;38.93;100369.73;1742408;81;20165;-54
2021/04/30 10:47:20;;;;;;;5.60;3.08;;;;;;;22.56;40.92;100370.51;1742602;82;21126;-63
2021/04/30 10:50:14;;;;;;;5.12;3.10;;;;;;;23.40;40.35;100355.31;1736729;82;21209;-64
2021/04/30 10:52:42;;;;;;;4.83;3.00;;;;;;;23.61;39.57;100357.03;1725693;82;21141;-63
2021/04/30 10:55:16;;;;;;;6.05;3.27;;;;;;;23.84;39.50;100355.09;1736843;82;21177;-55
2021/04/30 10:57:57;;;;;;;6.92;3.20;;;;;;;23.95;38.74;100352.53;1732369;82;21136;-54
2021/04/30 11:00:39;;;;;;;5.00;3.12;;;;;;;24.05;38.95;100350.96;1712807;84;21291;-54
2021/04/30 11:03:16;;;;;;;6.15;3.25;;;;;;;24.23;39.09;100352.47;1723328;82;21153;-64
2021/04/30 11:05:59;;;;;;;6.95;3.00;;;;;;;24.22;38.51;100351.59;1742633;82;21196;-54
2021/04/30 11:08:52;;;;;;;4.62;2.92;;;;;;;24.28;38.38;100355.20;1742541;82;21566;-54
2021/04/30 11:11:34;;;;;;;5.53;3.27;;;;;;;24.30;38.27;100345.66;1714572;82;21134;-64
2021/04/30 11:14:28;;;;;;;6.55;3.10;;;;;;;24.36;38.41;100338.50;1729778;82;21142;-63
2021/04/30 11:16:57;;;;;;;7.92;2.77;;;;;;;24.49;38.18;100338.52;1742248;82;21592;-54
2021/04/30 11:19:31;;;;;;;5.42;2.72;;;;;;;24.61;37.87;100330.04;1742067;82;21165;-54
2021/04/30 11:22:13;;;;;;;6.87;2.70;;;;;;;24.72;37.22;100337.36;1731202;82;21126;-63
2021/04/30 11:24:45;;;;;;;5.97;2.83;;;;;;;24.75;36.92;100327.21;1711835;84;21308;-54
2021/04/30 11:27:29;;;;;;;6.05;2.55;;;;;;;24.74;37.57;100323.30;1712620;84;21158;-54
2021/04/30 11:30:20;;;;;;;4.42;2.62;;;;;;;24.88;37.32;100324.98;1712511;84;21688;-54
2021/04/30 11:32:54;;;;;;;5.00;3.05;;;;;;;24.83;36.40;100328.02;1816627;77;20506;-52
2021/04/30 11:35:23;;;;;;;4.17;2.85;;;;;;;24.72;36.97;100320.74;1760668;81;21142;-53
2021/04/30 11:37:50;;;;;;;6.17;2.40;;;;;;;24.64;37.39;100311.83;1758604;81;21142;-62
2021/04/30 11:40:21;;;;;;;4.78;2.60;;;;;;;24.59;37.53;100307.77;1716732;80;21123;-54
2021/04/30 11:42:48;;;;;;;4.05;2.55;;;;;;;24.12;38.50;100310.18;1793086;80;21562;-64
2021/04/30 11:45:16;;;;;;;4.72;3.08;;;;;;;24.55;37.67;100301.73;1775852;80;21192;-54
2021/04/30 11:47:44;;;;;;;6.95;2.90;;;;;;;24.72;37.93;100292.95;1703045;83;21169;-64
2021/04/30 11:50:15;;;;;;;5.37;2.70;;;;;;;24.92;37.68;100285.63;1728312;83;21195;-63
2021/04/30 11:52:46;;;;;;;4.17;3.00;;;;;;;25.06;37.66;100284.59;1726960;83;21589;-54
2021/04/30 11:55:20;;;;;;;5.72;2.87;;;;;;;25.15;37.50;100278.14;1714855;82;21155;-54